Time;durP1;ratioP1;P1;durP2;ratioP2;P2;SDS_P1;SDS_P2;PMS_P1;PMS_P2;Temp;Humidity;BMP_temperature;BMP_pressure;BME280_temperature;BME280_humidity;BME280_pressure;Samples;Min_cycle;Max_cycle;Signal;HPM_P1;HPM_P2
2023/05/23 00:04:57;;;;;;;22.20;16.30;;;14.70;99.90;;;;;;12363667;28;20050;-37
2023/05/23 00:11:01;;;;;;;22.90;16.30;;;14.80;99.90;;;;;;12360283;28;20047;-37
2023/05/23 00:17:04;;;;;;;21.83;15.80;;;14.60;99.90;;;;;;12365634;28;20054;-37
2023/05/23 00:23:17;;;;;;;21.10;16.42;;;14.60;99.90;;;;;;12360946;28;20087;-47
2023/05/23 00:29:20;;;;;;;14.00;12.40;;;14.50;99.90;;;;;;12367209;28;20057;-37
2023/05/23 00:35:23;;;;;;;18.27;15.05;;;14.60;99.90;;;;;;12363781;28;20074;-37
2023/05/23 00:41:29;;;;;;;20.00;14.15;;;14.40;99.90;;;;;;12364485;28;20112;-37
2023/05/23 00:47:31;;;;;;;19.73;13.98;;;14.40;99.90;;;;;;12365283;28;20046;-37
2023/05/23 00:53:35;;;;;;;17.60;13.73;;;14.60;99.90;;;;;;12365919;28;20051;-37
2023/05/23 00:59:38;;;;;;;19.42;12.93;;;14.40;99.90;;;;;;12363695;28;20047;-37
2023/05/23 01:05:40;;;;;;;16.80;12.20;;;14.60;99.90;;;;;;12372239;28;20065;-36
2023/05/23 01:12:13;;;;;;;16.67;11.73;;;14.50;99.90;;;;;;12361553;28;20065;-36
2023/05/23 01:18:37;;;;;;;17.60;13.93;;;14.60;99.90;;;;;;12359480;28;20058;-36
2023/05/23 01:24:53;;;;;;;16.70;13.38;;;14.30;99.90;;;;;;12368795;28;20062;-37
2023/05/23 01:30:58;;;;;;;20.13;15.25;;;14.40;99.90;;;;;;12388884;28;20389;-36
2023/05/23 01:37:00;;;;;;;15.73;13.50;;;14.10;99.90;;;;;;12378931;28;20248;-37
2023/05/23 01:43:03;;;;;;;18.20;14.48;;;14.40;99.90;;;;;;12388487;28;20046;-36
2023/05/23 01:49:08;;;;;;;17.60;14.20;;;14.50;99.90;;;;;;12385404;28;20042;-37
2023/05/23 01:55:14;;;;;;;19.20;14.35;;;14.40;99.90;;;;;;12373624;28;20054;-36
2023/05/23 02:01:20;;;;;;;23.83;15.20;;;14.30;99.90;;;;;;12382186;28;20494;-36
2023/05/23 02:07:22;;;;;;;23.27;16.10;;;14.20;99.90;;;;;;12382683;28;20405;-37
2023/05/23 02:13:24;;;;;;;26.52;17.00;;;14.00;99.90;;;;;;12375172;28;20804;-36
2023/05/23 02:19:27;;;;;;;22.65;16.98;;;14.00;99.90;;;;;;12360183;28;20424;-36
2023/05/23 02:25:29;;;;;;;19.85;15.73;;;14.00;99.90;;;;;;12392778;28;20046;-37
2023/05/23 02:31:32;;;;;;;18.48;13.85;;;13.90;99.90;;;;;;12369582;28;20050;-38
2023/05/23 02:37:34;;;;;;;20.10;13.50;;;13.60;99.90;;;;;;12364119;28;20492;-36
2023/05/23 02:43:38;;;;;;;13.45;10.57;;;13.60;99.90;;;;;;12384878;28;20069;-37
2023/05/23 02:49:40;;;;;;;14.95;10.30;;;13.40;99.90;;;;;;12375583;28;20524;-36
2023/05/23 02:55:47;;;;;;;13.82;10.27;;;13.30;99.90;;;;;;12392882;28;20043;-37
2023/05/23 03:02:05;;;;;;;14.38;9.13;;;13.40;99.90;;;;;;12370597;28;20058;-36
2023/05/23 03:08:09;;;;;;;11.45;8.38;;;13.30;99.90;;;;;;12382018;28;20051;-37
2023/05/23 03:14:12;;;;;;;12.43;8.68;;;13.40;99.90;;;;;;12376992;28;20124;-37
2023/05/23 03:20:17;;;;;;;13.57;8.68;;;13.40;99.90;;;;;;12375637;28;20080;-36
2023/05/23 03:26:20;;;;;;;13.60;9.40;;;13.20;99.90;;;;;;12376303;28;20141;-36
2023/05/23 03:32:23;;;;;;;18.13;11.10;;;13.20;99.90;;;;;;12369984;28;20728;-36
2023/05/23 03:38:26;;;;;;;16.98;10.60;;;13.20;99.90;;;;;;12375881;28;20047;-37
2023/05/23 03:44:28;;;;;;;19.02;11.57;;;13.20;99.90;;;;;;12372365;28;20410;-37
2023/05/23 03:50:31;;;;;;;20.70;11.85;;;13.20;99.90;;;;;;12372932;28;20062;-36
2023/05/23 03:56:33;;;;;;;18.65;12.77;;;13.10;99.90;;;;;;12372222;28;20511;-37
2023/05/23 04:02:35;;;;;;;21.20;13.48;;;13.00;99.90;;;;;;12365845;28;20108;-36
2023/05/23 04:08:40;;;;;;;23.27;14.25;;;13.00;99.90;;;;;;12363800;28;20042;-37
2023/05/23 04:14:43;;;;;;;19.88;14.23;;;13.00;99.90;;;;;;12360735;28;20058;-37
2023/05/23 04:20:46;;;;;;;24.05;15.35;;;13.00;99.90;;;;;;12372109;28;20117;-36
2023/05/23 04:26:49;;;;;;;23.88;16.02;;;12.90;99.90;;;;;;12373658;28;20516;-35
2023/05/23 04:32:52;;;;;;;23.05;16.02;;;12.90;99.90;;;;;;12376252;28;20055;-37
2023/05/23 04:38:54;;;;;;;22.97;17.50;;;13.00;99.90;;;;;;12363532;28;20074;-37
2023/05/23 04:44:57;;;;;;;29.85;18.80;;;13.00;99.90;;;;;;12355998;28;20047;-36
2023/05/23 04:51:01;;;;;;;30.40;18.63;;;13.10;99.90;;;;;;12360969;28;20070;-36
2023/05/23 04:57:03;;;;;;;28.70;17.80;;;13.20;99.90;;;;;;12372592;28;20108;-36
2023/05/23 05:03:05;;;;;;;30.48;18.02;;;13.20;99.90;;;;;;12350153;28;20058;-37
2023/05/23 05:09:07;;;;;;;30.27;19.20;;;13.20;99.90;;;;;;12362052;28;20133;-37
2023/05/23 05:15:09;;;;;;;32.80;18.55;;;13.30;99.90;;;;;;12362994;28;20066;-37
2023/05/23 05:21:13;;;;;;;28.17;17.05;;;13.30;99.90;;;;;;12370742;28;20134;-37
2023/05/23 05:27:15;;;;;;;31.77;18.10;;;13.20;99.90;;;;;;12363649;28;20113;-37
2023/05/23 05:33:19;;;;;;;31.20;18.52;;;13.30;99.90;;;;;;12368579;28;20436;-36
2023/05/23 05:39:23;;;;;;;28.15;18.45;;;13.30;99.90;;;;;;12358806;28;20186;-36
2023/05/23 05:45:25;;;;;;;28.17;17.70;;;13.30;99.90;;;;;;12361557;28;20046;-37
2023/05/23 05:51:28;;;;;;;29.48;18.08;;;13.30;99.90;;;;;;12360283;28;20042;-36
2023/05/23 05:57:30;;;;;;;29.65;16.88;;;13.40;99.90;;;;;;12366337;28;20133;-37
2023/05/23 06:03:32;;;;;;;20.65;15.50;;;13.30;99.90;;;;;;12369661;28;20539;-36
2023/05/23 06:09:35;;;;;;;28.13;16.20;;;13.40;99.90;;;;;;12365116;28;20485;-35
2023/05/23 06:15:37;;;;;;;28.38;14.50;;;13.30;99.90;;;;;;12361534;28;20141;-36
2023/05/23 06:21:39;;;;;;;20.17;12.02;;;13.20;99.90;;;;;;12362783;28;20051;-39
2023/05/23 06:27:41;;;;;;;22.58;13.15;;;13.30;99.90;;;;;;12367531;28;20047;-39
2023/05/23 06:33:43;;;;;;;20.25;12.65;;;13.20;99.90;;;;;;12364191;28;20341;-39
2023/05/23 06:39:45;;;;;;;25.52;13.68;;;13.10;99.90;;;;;;12356647;28;20100;-39
2023/05/23 06:45:47;;;;;;;21.30;12.25;;;13.20;99.90;;;;;;12360845;28;20408;-38
2023/05/23 06:51:49;;;;;;;23.00;12.45;;;13.10;99.90;;;;;;12357909;28;20066;-39
2023/05/23 06:57:52;;;;;;;22.25;12.43;;;13.20;99.90;;;;;;12344149;28;20111;-38
2023/05/23 07:03:54;;;;;;;20.25;11.50;;;13.10;99.90;;;;;;12367296;28;20050;-39
2023/05/23 07:09:56;;;;;;;22.38;13.95;;;13.00;99.90;;;;;;12359418;28;20200;-36
2023/05/23 07:15:58;;;;;;;23.23;12.73;;;13.00;99.90;;;;;;12383466;28;20531;-38
2023/05/23 07:22:00;;;;;;;32.13;11.93;;;12.90;99.90;;;;;;12362862;28;20543;-38
2023/05/23 07:28:02;;;;;;;26.60;12.30;;;12.90;99.90;;;;;;12369375;28;20496;-38
2023/05/23 07:34:04;;;;;;;25.83;10.77;;;12.80;99.90;;;;;;12371494;28;20043;-38
2023/05/23 07:40:08;;;;;;;13.80;8.88;;;12.70;99.90;;;;;;12373922;28;20389;-38
2023/05/23 07:46:10;;;;;;;15.63;7.27;;;12.80;99.90;;;;;;12340350;28;20081;-38
2023/05/23 07:52:12;;;;;;;15.07;7.00;;;12.60;99.90;;;;;;12374924;28;20047;-38
2023/05/23 07:58:14;;;;;;;15.82;6.10;;;12.70;99.90;;;;;;12382758;28;20093;-38
2023/05/23 08:04:17;;;;;;;9.65;5.32;;;12.30;99.90;;;;;;12384203;28;20046;-38
2023/05/23 08:10:19;;;;;;;10.10;4.63;;;12.40;99.90;;;;;;12387311;28;20389;-37
2023/05/23 08:16:21;;;;;;;8.40;3.85;;;12.50;99.90;;;;;;12377450;28;20050;-38
2023/05/23 08:22:25;;;;;;;4.85;3.10;;;12.40;99.90;;;;;;12366664;28;20512;-38
2023/05/23 08:28:26;;;;;;;5.95;3.33;;;12.40;99.90;;;;;;12344905;28;20039;-37
2023/05/23 08:34:28;;;;;;;6.13;3.25;;;12.30;99.90;;;;;;12352775;28;20042;-37
2023/05/23 08:40:33;;;;;;;5.03;3.38;;;12.20;99.90;;;;;;12369080;28;20066;-37
2023/05/23 08:46:38;;;;;;;;;;;12.30;99.90;;;;;;12358796;28;20042;-38
2023/05/23 08:52:54;;;;;;;5.22;2.60;;;12.10;99.90;;;;;;12362936;28;19922;-38
2023/05/23 08:58:57;;;;;;;3.50;2.00;;;12.10;99.90;;;;;;12345427;28;20047;-38
2023/05/23 09:04:59;;;;;;;5.45;1.80;;;11.90;99.90;;;;;;12349901;28;20057;-37
2023/05/23 09:11:03;;;;;;;4.25;2.20;;;12.00;99.90;;;;;;12347292;28;20198;-37
2023/05/23 09:17:05;;;;;;;7.73;3.47;;;12.00;99.90;;;;;;12356530;28;20081;-38
2023/05/23 09:23:08;;;;;;;8.20;3.55;;;12.10;99.90;;;;;;12356179;28;20355;-37
2023/05/23 09:29:09;;;;;;;11.95;5.68;;;12.10;99.90;;;;;;12359982;28;20500;-37
2023/05/23 09:35:12;;;;;;;9.55;5.30;;;11.80;99.90;;;;;;12356040;28;20054;-38
2023/05/23 09:41:15;;;;;;;14.77;6.10;;;11.70;99.90;;;;;;12363941;28;20138;-38
2023/05/23 09:47:17;;;;;;;18.20;6.93;;;11.70;99.90;;;;;;12364346;28;20186;-38
2023/05/23 09:53:21;;;;;;;17.50;6.55;;;11.80;99.90;;;;;;12379507;28;20043;-38
2023/05/23 09:59:30;;;;;;;15.57;6.70;;;11.70;99.90;;;;;;12355691;28;20246;-38
2023/05/23 10:05:49;;;;;;;15.25;6.72;;;11.70;99.90;;;;;;12361295;28;20074;-38
2023/05/23 10:12:32;;;;;;;20.35;6.15;;;11.60;99.90;;;;;;12371916;28;20086;-38
2023/05/23 10:18:41;;;;;;;15.43;6.13;;;11.60;99.90;;;;;;12374101;28;20055;-38
2023/05/23 10:24:47;;;;;;;19.67;7.03;;;11.60;99.90;;;;;;12378165;28;20050;-38
2023/05/23 10:30:50;;;;;;;15.63;6.15;;;11.70;99.90;;;;;;12382398;28;20042;-39
2023/05/23 10:37:01;;;;;;;18.33;6.70;;;11.60;99.90;;;;;;12368186;28;20046;-38
2023/05/23 10:43:15;;;;;;;14.93;6.57;;;11.70;99.90;;;;;;12370768;28;20054;-38
2023/05/23 10:49:17;;;;;;;14.82;6.28;;;11.80;99.90;;;;;;12350343;28;20069;-38
2023/05/23 10:55:19;;;;;;;12.43;6.00;;;11.60;99.90;;;;;;12359569;28;20053;-38
2023/05/23 11:01:22;;;;;;;16.38;6.80;;;11.70;99.90;;;;;;12340803;28;20046;-37
2023/05/23 11:07:29;;;;;;;20.77;6.03;;;11.60;99.90;;;;;;12379822;28;20050;-38
2023/05/23 11:13:58;;;;;;;15.93;5.88;;;11.80;99.90;;;;;;12373500;28;20054;-38
2023/05/23 11:20:05;;;;;;;15.88;6.25;;;12.30;99.90;;;;;;12372724;28;20047;-37
2023/05/23 11:26:30;;;;;;;17.17;5.65;;;12.40;99.90;;;;;;12373206;28;20039;-37
2023/05/23 11:32:34;;;;;;;11.05;5.18;;;12.70;99.90;;;;;;12368923;28;20050;-37
2023/05/23 11:38:37;;;;;;;;;;;12.90;99.90;;;;;;12349821;28;20057;-38
2023/05/23 11:44:39;;;;;;;14.27;5.10;;;12.90;99.90;;;;;;12360195;28;20315;-38
2023/05/23 11:50:47;;;;;;;14.68;4.97;;;13.10;99.90;;;;;;12362436;28;20078;-38
2023/05/23 11:56:50;;;;;;;16.83;4.90;;;12.80;99.90;;;;;;12368098;28;20051;-37
2023/05/23 12:02:51;;;;;;;17.88;5.00;;;12.60;99.90;;;;;;12367757;28;20051;-38
2023/05/23 12:08:54;;;;;;;18.15;5.80;;;12.30;99.90;;;;;;12358973;28;20042;-38
2023/05/23 12:14:56;;;;;;;17.33;4.63;;;12.40;99.90;;;;;;12373223;28;20057;-38
2023/05/23 12:21:04;;;;;;;16.35;4.95;;;12.40;99.90;;;;;;12368713;28;20050;-38
2023/05/23 12:27:09;;;;;;;17.02;4.50;;;12.30;99.90;;;;;;12369972;28;20137;-38
2023/05/23 12:33:14;;;;;;;19.38;4.85;;;12.50;99.90;;;;;;12373035;28;20102;-38
2023/05/23 12:39:23;;;;;;;19.00;4.78;;;12.90;99.90;;;;;;12372952;28;20050;-38
2023/05/23 12:45:32;;;;;;;13.32;3.95;;;14.00;99.90;;;;;;12359910;28;20047;-38
2023/05/23 12:51:35;;;;;;;13.60;3.83;;;13.90;99.90;;;;;;12376156;28;20051;-38
2023/05/23 12:57:37;;;;;;;13.23;4.13;;;13.90;99.90;;;;;;12373634;28;20050;-38
2023/05/23 13:03:39;;;;;;;15.75;3.75;;;13.70;99.90;;;;;;12354982;28;20497;-39
2023/05/23 13:09:41;;;;;;;11.63;4.38;;;13.50;99.90;;;;;;12354111;28;20050;-38
2023/05/23 13:15:43;;;;;;;14.70;3.97;;;13.70;99.90;;;;;;12360505;28;20082;-37
2023/05/23 13:21:48;;;;;;;10.27;3.83;;;13.90;99.90;;;;;;12365766;28;20075;-38
2023/05/23 13:27:54;;;;;;;11.70;3.58;;;13.70;99.90;;;;;;12385585;28;20501;-38
2023/05/23 13:33:56;;;;;;;15.60;4.07;;;14.30;99.90;;;;;;12370262;28;20135;-37
2023/05/23 13:40:02;;;;;;;16.17;3.83;;;14.10;99.90;;;;;;12354830;28;20058;-38
2023/05/23 13:46:04;;;;;;;12.93;3.65;;;13.70;99.90;;;;;;12367547;28;20539;-38
2023/05/23 13:52:06;;;;;;;11.93;3.83;;;13.70;99.90;;;;;;12380875;28;20049;-38
2023/05/23 13:58:08;;;;;;;15.82;4.15;;;14.00;99.90;;;;;;12359997;28;20089;-38
2023/05/23 14:04:10;;;;;;;11.75;3.35;;;14.00;99.90;;;;;;12372585;28;20073;-38
2023/05/23 14:10:14;;;;;;;8.02;3.13;;;14.20;99.90;;;;;;12351258;28;20042;-36
2023/05/23 14:16:15;;;;;;;11.97;3.50;;;14.20;99.90;;;;;;12371297;28;20062;-37
2023/05/23 14:22:17;;;;;;;13.45;4.13;;;13.90;99.90;;;;;;12370254;28;20149;-38
2023/05/23 14:28:19;;;;;;;13.88;3.75;;;14.30;99.90;;;;;;12370607;28;20053;-38
2023/05/23 14:34:21;;;;;;;11.90;2.90;;;14.30;99.90;;;;;;12333153;28;20129;-38
2023/05/23 14:40:23;;;;;;;10.10;2.65;;;14.40;99.90;;;;;;12363758;28;20583;-38
2023/05/23 14:46:25;;;;;;;7.95;2.78;;;14.70;99.90;;;;;;12353444;28;20081;-40
2023/05/23 14:52:27;;;;;;;9.32;3.15;;;14.80;99.90;;;;;;12366040;28;20042;-38
2023/05/23 14:58:30;;;;;;;12.70;2.50;;;14.70;99.90;;;;;;12368128;28;20141;-38
2023/05/23 15:04:32;;;;;;;8.65;2.17;;;14.40;99.90;;;;;;12336591;28;20058;-38
2023/05/23 15:10:34;;;;;;;8.60;2.60;;;14.30;99.90;;;;;;12369658;28;20054;-38
2023/05/23 15:16:36;;;;;;;13.20;3.00;;;14.30;99.90;;;;;;12363891;28;20050;-38
2023/05/23 15:22:39;;;;;;;10.20;2.50;;;14.30;99.90;;;;;;12368593;28;20042;-38
2023/05/23 15:28:41;;;;;;;9.65;2.30;;;14.40;99.90;;;;;;12368679;28;20043;-38
2023/05/23 15:34:43;;;;;;;11.30;2.80;;;14.30;99.90;;;;;;12341704;28;20133;-38
2023/05/23 15:40:47;;;;;;;9.40;2.72;;;14.80;99.90;;;;;;12370166;28;20042;-38
2023/05/23 15:46:50;;;;;;;12.00;2.58;;;14.80;99.90;;;;;;12358909;28;20103;-38
2023/05/23 15:52:52;;;;;;;12.50;2.70;;;14.50;99.90;;;;;;12335613;28;20054;-38
2023/05/23 15:58:54;;;;;;;11.65;2.22;;;14.60;99.90;;;;;;12337913;28;20089;-38
2023/05/23 16:04:58;;;;;;;13.10;2.45;;;14.50;99.90;;;;;;12340043;28;20050;-38
2023/05/23 16:11:00;;;;;;;11.55;2.67;;;14.70;99.90;;;;;;12341286;28;20133;-38
2023/05/23 16:17:03;;;;;;;10.02;2.28;;;14.20;99.90;;;;;;12351605;28;20103;-38
2023/05/23 16:23:05;;;;;;;12.98;2.95;;;14.10;99.90;;;;;;12371858;28;20069;-38
2023/05/23 16:29:07;;;;;;;12.63;2.70;;;14.10;99.90;;;;;;12375964;28;20073;-38
2023/05/23 16:35:12;;;;;;;14.45;2.90;;;13.90;99.90;;;;;;12358863;28;20397;-38
2023/05/23 16:41:14;;;;;;;7.88;2.15;;;13.70;99.90;;;;;;12355398;28;20085;-37
2023/05/23 16:47:16;;;;;;;9.00;2.10;;;13.70;99.90;;;;;;12360747;28;20073;-39
2023/05/23 16:53:18;;;;;;;11.07;2.67;;;13.90;99.90;;;;;;12358668;28;20046;-38
2023/05/23 16:59:21;;;;;;;13.13;2.58;;;14.00;99.90;;;;;;12360061;28;20544;-38
2023/05/23 17:05:24;;;;;;;11.48;2.40;;;13.90;99.90;;;;;;12365619;28;20055;-38
2023/05/23 17:11:26;;;;;;;7.07;2.30;;;14.40;99.90;;;;;;12364048;28;20072;-38
2023/05/23 17:17:28;;;;;;;9.02;2.10;;;14.20;99.90;;;;;;12363285;28;20090;-38
2023/05/23 17:23:31;;;;;;;15.37;3.27;;;14.00;99.90;;;;;;12374029;28;20073;-38
2023/05/23 17:29:33;;;;;;;15.90;2.70;;;13.50;99.90;;;;;;12352808;28;20051;-38
2023/05/23 17:35:35;;;;;;;12.90;2.20;;;13.80;99.90;;;;;;12338500;28;20093;-38
2023/05/23 17:41:37;;;;;;;13.23;2.33;;;13.80;99.90;;;;;;12340778;28;20121;-38
2023/05/23 17:47:40;;;;;;;10.55;2.45;;;13.70;99.90;;;;;;12375451;28;20499;-38
2023/05/23 17:53:42;;;;;;;9.65;2.20;;;13.20;99.90;;;;;;12369631;28;20197;-38
2023/05/23 17:59:44;;;;;;;11.90;2.22;;;13.70;99.90;;;;;;12359523;28;20058;-38
2023/05/23 18:05:46;;;;;;;13.23;2.47;;;13.80;99.90;;;;;;12356279;28;20081;-38
2023/05/23 18:11:48;;;;;;;7.90;2.28;;;13.20;99.90;;;;;;12360950;28;20103;-37
2023/05/23 18:17:54;;;;;;;15.15;2.83;;;12.90;99.90;;;;;;12377798;28;20138;-39
2023/05/23 18:23:56;;;;;;;12.88;2.15;;;12.70;99.90;;;;;;12374533;28;20091;-37
2023/05/23 18:29:58;;;;;;;11.90;2.15;;;12.60;99.90;;;;;;12361620;28;20142;-38
2023/05/23 18:36:00;;;;;;;10.73;2.05;;;12.30;99.90;;;;;;12360005;28;20046;-38
2023/05/23 18:42:02;;;;;;;13.20;2.35;;;12.50;99.90;;;;;;12364697;28;20050;-38
2023/05/23 18:48:04;;;;;;;12.82;2.45;;;12.20;99.90;;;;;;12354939;28;20071;-37
2023/05/23 18:54:06;;;;;;;11.27;2.10;;;12.10;99.90;;;;;;12351693;28;20049;-37
2023/05/23 19:00:10;;;;;;;13.13;2.45;;;12.10;99.90;;;;;;12354268;28;20054;-37
2023/05/23 19:06:12;;;;;;;11.20;2.13;;;11.90;99.90;;;;;;12345689;28;20054;-38
2023/05/23 19:12:14;;;;;;;13.00;1.98;;;11.60;99.90;;;;;;12369682;28;20190;-36
2023/05/23 19:18:17;;;;;;;10.43;2.92;;;11.60;99.90;;;;;;12371145;28;20070;-35
2023/05/23 19:24:19;;;;;;;12.23;2.67;;;11.40;99.90;;;;;;12376973;28;20061;-36
2023/05/23 19:30:22;;;;;;;9.23;2.13;;;11.40;99.90;;;;;;12373446;28;20133;-36
2023/05/23 19:36:24;;;;;;;14.57;2.03;;;11.50;99.90;;;;;;12363252;28;20051;-35
2023/05/23 19:42:26;;;;;;;13.38;2.13;;;11.20;99.90;;;;;;12356210;28;20058;-36
2023/05/23 19:48:28;;;;;;;7.22;1.90;;;11.20;99.90;;;;;;12367620;28;20050;-36
2023/05/23 19:54:30;;;;;;;9.98;1.83;;;11.10;99.90;;;;;;12364254;28;20039;-36
2023/05/23 20:00:33;;;;;;;14.57;2.30;;;11.00;99.90;;;;;;12353177;28;20046;-35
2023/05/23 20:06:35;;;;;;;8.77;1.88;;;10.80;99.90;;;;;;12358325;28;20137;-35
2023/05/23 20:12:38;;;;;;;5.97;2.03;;;10.60;99.90;;;;;;12377638;28;20050;-36
2023/05/23 20:18:41;;;;;;;12.73;2.17;;;10.70;99.90;;;;;;12352141;28;20604;-35
2023/05/23 20:24:43;;;;;;;10.70;2.33;;;10.60;99.90;;;;;;12359188;28;20058;-35
2023/05/23 20:30:47;;;;;;;11.35;1.85;;;10.50;99.90;;;;;;12371113;28;20050;-36
2023/05/23 20:36:49;;;;;;;13.77;2.40;;;10.80;99.90;;;;;;12332394;28;20055;-35
2023/05/23 20:42:52;;;;;;;8.98;1.70;;;10.60;99.90;;;;;;12369719;28;20066;-36
2023/05/23 20:48:56;;;;;;;15.95;2.75;;;10.70;99.90;;;;;;12380265;28;20050;-36
2023/05/23 20:54:59;;;;;;;14.65;2.35;;;10.60;99.90;;;;;;12372931;28;20057;-36
2023/05/23 21:01:02;;;;;;;13.40;2.17;;;10.60;99.90;;;;;;12377214;28;20076;-36
2023/05/23 21:07:04;;;;;;;9.75;1.77;;;10.30;99.90;;;;;;12354064;28;20050;-36
2023/05/23 21:13:06;;;;;;;13.82;2.30;;;9.90;99.90;;;;;;12369001;28;20045;-36
2023/05/23 21:19:08;;;;;;;11.18;2.47;;;9.80;99.90;;;;;;12366967;28;20066;-38
2023/05/23 21:25:10;;;;;;;9.82;1.70;;;9.70;99.90;;;;;;12337841;28;20051;-39
2023/05/23 21:31:12;;;;;;;11.18;2.03;;;9.60;99.90;;;;;;12302092;28;20058;-38
2023/05/23 21:37:14;;;;;;;13.07;2.15;;;9.60;99.90;;;;;;12309198;28;20488;-38
2023/05/23 21:43:16;;;;;;;13.73;2.30;;;9.60;99.90;;;;;;12313295;28;20059;-38
2023/05/23 21:49:18;;;;;;;9.30;2.05;;;9.90;99.90;;;;;;12336313;28;20051;-38
2023/05/23 21:55:20;;;;;;;18.73;2.85;;;9.30;99.90;;;;;;12355812;28;20047;-38
2023/05/23 22:01:22;;;;;;;11.68;2.33;;;9.40;99.90;;;;;;12367003;28;20090;-37
2023/05/23 22:07:24;;;;;;;11.02;1.85;;;9.60;99.90;;;;;;12367961;28;20042;-38
2023/05/23 22:13:26;;;;;;;21.52;2.55;;;9.60;99.90;;;;;;12365646;28;20058;-37
2023/05/23 22:19:29;;;;;;;17.08;2.30;;;9.50;99.90;;;;;;12363481;28;20088;-38
2023/05/23 22:25:31;;;;;;;12.45;1.98;;;8.90;99.90;;;;;;12379161;28;20047;-37
2023/05/23 22:31:34;;;;;;;11.50;2.17;;;8.80;99.90;;;;;;12367035;28;20078;-38
2023/05/23 22:37:37;;;;;;;16.40;2.53;;;8.90;99.90;;;;;;12362736;28;20054;-38
2023/05/23 22:43:38;;;;;;;13.63;1.95;;;8.80;99.90;;;;;;12372939;28;20054;-38
2023/05/23 22:49:41;;;;;;;16.70;2.80;;;8.80;99.90;;;;;;12365604;28;20050;-38
2023/05/23 22:55:43;;;;;;;14.75;2.30;;;8.80;99.90;;;;;;12372267;28;20042;-38
2023/05/23 23:01:52;;;;;;;12.80;2.33;;;8.50;99.90;;;;;;12361030;28;20419;-38
2023/05/23 23:07:54;;;;;;;29.17;3.30;;;8.60;99.90;;;;;;12363779;28;20446;-38
2023/05/23 23:13:58;;;;;;;14.60;2.42;;;8.80;99.90;;;;;;12358511;28;20065;-37
2023/05/23 23:20:00;;;;;;;14.02;2.50;;;9.20;99.90;;;;;;12362539;28;20047;-37
2023/05/23 23:26:03;;;;;;;6.35;1.90;;;8.80;99.90;;;;;;12373794;28;20492;-38
2023/05/23 23:32:06;;;;;;;12.23;2.10;;;9.00;99.90;;;;;;12350019;28;20043;-38
2023/05/23 23:38:08;;;;;;;16.90;2.53;;;9.20;99.90;;;;;;12361585;28;20121;-38
2023/05/23 23:44:10;;;;;;;8.90;1.80;;;9.20;99.90;;;;;;12376555;28;20077;-37
2023/05/23 23:50:13;;;;;;;13.35;2.25;;;9.30;99.90;;;;;;12365226;28;20448;-36
2023/05/23 23:56:15;;;;;;;9.68;2.33;;;9.20;99.90;;;;;;12370041;28;20058;-35
